Main page
METAR-TAF:

METAR-TAF

Airports :

William P. Hobby Airport

Houston, Texas, United States

latitude: 29-38-15N, longitude: 095-16-57W, elevation: 46 ft

Current weather observation

The report was made 29 minutes ago, at 15:53 UTC
Wind 3 mph from the East/Southeast
Temperature 90°F
Humidity 56%
Pressure 29.94 in. Hg
Visibility: 10 miles
Scattered clouds at a height of 4000 ft

METAR: KHOU 151553Z 11003KT 10SM SCT040 32/22 A2994 RMK AO2 SLP142 T03220217 $

Time: 11:22 (16:22 UTC)

Forecast

The report was made 48 minutes ago, at 15:34 UTC
Forecast valid from 15 at 16 UTC to 16 at 12 UTC
Wind 0 mph from the North
Visibility: 6 miles
Few clouds at a height of 2000 ft
Scattered clouds at a height of 4000 ft
From 15 at 1800 UTC
Wind 10 mph from the Southeast
Visibility: 6 miles
Few clouds at a height of 25000 ft
From 16 at 0300 UTC
Wind 5 mph from variable directions
Visibility: 6 miles
Clear sky

TAF: KHOU 151534Z 1516/1612 00000KT P6SM FEW020 SCT040 FM151800 14009KT P6SM FEW250 FM160300 VRB04KT P6SM SKC

Weather observations and forecasts of more than 4000 airports (METAR and TAF reports).

The available stations are represented by yellow and red dots on the map.

Hover mouse over dot to see the name of the station.

Then click to see weather observations and forecasts.

To change the map : click on the green buttons with a black cross to zoom in, on the green button with a dash to zoom out, or on the green arrows for adjacent maps.


METAR-TAF: